Time;durP1;ratioP1;P1;durP2;ratioP2;P2;SDS_P1;SDS_P2;PMS_P1;PMS_P2;Temp;Humidity;BMP_temperature;BMP_pressure;BME280_temperature;BME280_humidity;BME280_pressure;Samples;Min_cycle;Max_cycle;Signal;HPM_P1;HPM_P2
2022/04/22 00:02:24;;;;;;;6.15;3.80;;;;;;;10.99;75.99;98845.78;5091908;28;20016;-63
2022/04/22 00:04:49;;;;;;;5.20;3.00;;;;;;;10.95;76.65;98841.56;5091797;28;20039;-63
2022/04/22 00:07:15;;;;;;;6.68;3.20;;;;;;;10.91;76.69;98832.00;5092022;28;20020;-63
2022/04/22 00:09:40;;;;;;;5.15;3.20;;;;;;;10.89;76.34;98837.41;5091362;28;20044;-62
2022/04/22 00:12:07;;;;;;;7.18;3.25;;;;;;;10.89;76.59;98836.56;5091891;28;20077;-62
2022/04/22 00:14:32;;;;;;;6.47;3.42;;;;;;;10.88;76.39;98829.50;5091211;28;20031;-62
2022/04/22 00:16:57;;;;;;;5.28;3.17;;;;;;;10.89;76.58;98828.59;5090219;28;20012;-62
2022/04/22 00:19:23;;;;;;;6.13;2.83;;;;;;;10.88;76.69;98826.84;5091006;28;20352;-62
2022/04/22 00:21:48;;;;;;;5.65;2.80;;;;;;;10.88;76.04;98824.19;5091850;28;20055;-62
2022/04/22 00:24:15;;;;;;;7.00;4.35;;;;;;;10.90;76.57;98825.84;5082660;28;20016;-62
2022/04/22 00:26:41;;;;;;;5.57;3.28;;;;;;;10.83;77.18;98821.78;5071593;28;20483;-62
2022/04/22 00:29:07;;;;;;;7.10;3.53;;;;;;;10.85;76.78;98821.69;5052875;28;20024;-62
2022/04/22 00:31:33;;;;;;;6.03;3.30;;;;;;;10.86;76.76;98818.09;5071283;28;20094;-62
2022/04/22 00:33:58;;;;;;;4.72;3.10;;;;;;;10.81;77.47;98822.81;5071250;28;20480;-62
2022/04/22 00:36:23;;;;;;;5.13;3.88;;;;;;;10.74;77.03;98816.09;5071362;28;20103;-62
2022/04/22 00:38:49;;;;;;;5.43;3.20;;;;;;;10.68;77.44;98813.72;5071177;28;20024;-63
2022/04/22 00:41:14;;;;;;;6.15;3.75;;;;;;;10.71;77.45;98816.25;5071324;28;20472;-63
2022/04/22 00:43:49;;;;;;;4.43;2.92;;;;;;;10.74;76.76;98811.59;5071303;28;20438;-63
2022/04/22 00:46:14;;;;;;;6.45;3.30;;;;;;;10.79;76.64;98806.06;5071005;28;20021;-63
2022/04/22 00:48:41;;;;;;;5.32;3.38;;;;;;;10.76;76.06;98804.41;5071200;28;20120;-62
2022/04/22 00:51:09;;;;;;;6.03;2.90;;;;;;;10.75;76.32;98799.19;5071164;28;20035;-62
2022/04/22 00:53:35;;;;;;;6.72;3.63;;;;;;;10.76;75.25;98798.25;5069976;28;20384;-63
2022/04/22 00:56:04;;;;;;;6.53;3.22;;;;;;;10.77;74.74;98797.31;5061747;28;20025;-62
2022/04/22 00:58:30;;;;;;;10.18;3.60;;;;;;;10.78;74.96;98793.69;5051204;28;20430;-62
2022/04/22 01:00:55;;;;;;;7.07;3.55;;;;;;;10.80;74.59;98798.00;5050811;28;20032;-62
2022/04/22 01:03:21;;;;;;;5.85;3.97;;;;;;;10.77;74.48;98792.00;5052840;28;20024;-62
2022/04/22 01:11:17;;;;;;;5.60;3.35;;;;;;;10.75;74.86;98800.06;5053558;28;20042;-62
2022/04/22 01:13:44;;;;;;;6.18;3.58;;;;;;;10.72;74.87;98794.03;5071227;28;20040;-62
2022/04/22 01:16:09;;;;;;;6.40;4.13;;;;;;;10.62;76.01;98785.69;5053131;28;20361;-62
2022/04/22 01:18:35;;;;;;;6.55;3.67;;;;;;;10.61;76.12;98784.81;5091237;28;20031;-62
2022/04/22 01:21:01;;;;;;;6.80;4.20;;;;;;;10.60;75.97;98776.91;5091179;28;20101;-63
2022/04/22 01:23:27;;;;;;;8.27;3.88;;;;;;;10.62;75.70;98772.38;5077105;28;20036;-63
2022/04/22 01:25:53;;;;;;;6.20;3.58;;;;;;;10.53;76.37;98768.41;5074206;28;20024;-63
2022/04/22 01:28:20;;;;;;;6.25;3.30;;;;;;;10.46;76.96;98772.31;5064205;28;20473;-63
2022/04/22 01:30:45;;;;;;;6.85;3.83;;;;;;;10.45;77.12;98767.94;5054264;28;20021;-63
2022/04/22 01:33:11;;;;;;;8.15;3.33;;;;;;;10.42;77.63;98764.59;5054499;28;20445;-63
2022/04/22 01:35:36;;;;;;;7.32;3.58;;;;;;;10.37;79.19;98759.50;5054190;28;20116;-62
2022/04/22 01:38:02;;;;;;;8.60;3.83;;;;;;;10.35;79.09;98761.38;5054447;28;20534;-62
2022/04/22 01:40:27;;;;;;;7.25;4.75;;;;;;;10.33;79.62;98765.91;5059587;28;20029;-62
2022/04/22 01:42:53;;;;;;;8.77;4.65;;;;;;;10.26;79.91;98763.66;5074412;28;20472;-62
2022/04/22 01:45:19;;;;;;;7.03;3.90;;;;;;;10.24;80.75;98753.13;5073930;28;20051;-62
2022/04/22 01:47:44;;;;;;;8.18;4.72;;;;;;;10.21;81.08;98747.09;5072751;28;20091;-62
2022/04/22 01:50:10;;;;;;;7.63;4.60;;;;;;;10.19;81.11;98747.19;5072614;28;20024;-62
2022/04/22 01:52:39;;;;;;;7.43;4.72;;;;;;;10.23;81.02;98745.22;5072611;28;20484;-62
2022/04/22 01:55:05;;;;;;;8.05;4.97;;;;;;;10.19;81.34;98747.19;5072089;28;20107;-62
2022/04/22 01:57:30;;;;;;;9.38;4.93;;;;;;;10.09;81.54;98735.28;5072496;28;20163;-62
2022/04/22 01:59:58;;;;;;;9.40;5.38;;;;;;;10.07;81.58;98731.81;5071799;28;20037;-62
2022/04/22 02:02:23;;;;;;;8.32;4.72;;;;;;;10.13;82.21;98747.47;5073777;28;20020;-62
2022/04/22 02:04:49;;;;;;;9.65;5.93;;;;;;;10.15;82.84;98750.91;5073764;28;20028;-62
2022/04/22 02:07:14;;;;;;;10.30;5.80;;;;;;;10.09;83.06;98745.91;5073830;28;20013;-62
2022/04/22 02:09:39;;;;;;;10.27;6.13;;;;;;;10.11;82.75;98746.72;5073465;28;20074;-62
2022/04/22 02:12:06;;;;;;;11.02;6.07;;;;;;;10.14;82.59;98741.22;5073625;28;20337;-62
2022/04/22 02:14:33;;;;;;;10.68;6.25;;;;;;;9.95;83.36;98721.81;5073874;28;20448;-62
2022/04/22 02:16:59;;;;;;;9.07;5.72;;;;;;;10.03;83.91;98738.22;5080956;28;20020;-62
2022/04/22 02:19:25;;;;;;;11.95;6.20;;;;;;;10.08;83.87;98738.88;5093764;28;20024;-62
2022/04/22 02:21:51;;;;;;;9.57;5.07;;;;;;;10.01;84.17;98737.44;5093570;28;20039;-62
2022/04/22 02:24:17;;;;;;;10.77;6.65;;;;;;;9.93;85.14;98729.00;5083976;28;20106;-62
2022/04/22 02:29:26;;;;;;;;;;;;;;;9.96;84.51;98734.16;5073789;28;20039;-62
2022/04/22 02:31:52;;;;;;;15.05;6.97;;;;;;;9.84;85.37;98716.19;5073202;28;19912;-62
2022/04/22 02:34:19;;;;;;;12.00;6.25;;;;;;;9.92;85.95;98729.94;5073609;28;20472;-62
2022/04/22 02:36:45;;;;;;;13.30;6.30;;;;;;;9.96;85.73;98717.34;5072986;28;20391;-62
2022/04/22 02:39:11;;;;;;;12.32;6.75;;;;;;;9.90;86.21;98723.81;5073099;28;20029;-62
2022/04/22 02:47:04;;;;;;;12.60;7.22;;;;;;;9.88;87.11;98715.09;5072766;28;20035;-62
2022/04/22 02:49:29;;;;;;;11.15;6.57;;;;;;;9.83;87.93;98710.94;5072971;28;20028;-62
2022/04/22 02:51:55;;;;;;;13.80;6.45;;;;;;;9.82;87.99;98710.09;5071064;28;20016;-62
2022/04/22 02:54:20;;;;;;;11.98;6.82;;;;;;;9.82;88.11;98707.44;5063143;28;20024;-62
2022/04/22 02:56:45;;;;;;;15.40;7.57;;;;;;;9.86;87.97;98705.47;5072734;28;20052;-62
2022/04/22 02:59:11;;;;;;;14.90;7.10;;;;;;;9.82;88.63;98702.13;5072763;28;20024;-62
2022/04/22 03:01:37;;;;;;;16.27;6.97;;;;;;;9.78;88.51;98702.34;5067398;28;20451;-62
2022/04/22 03:04:03;;;;;;;13.90;7.38;;;;;;;9.77;89.15;98701.47;5052657;28;20035;-62
2022/04/22 03:06:29;;;;;;;16.23;7.60;;;;;;;9.71;89.19;98698.28;5052503;28;20021;-62
2022/04/22 03:08:54;;;;;;;13.70;7.78;;;;;;;9.73;89.87;98694.63;5068714;28;20141;-62
2022/04/22 03:11:23;;;;;;;14.38;7.53;;;;;;;9.71;89.83;98695.63;5072110;28;20025;-62
2022/04/22 03:13:52;;;;;;;13.35;7.70;;;;;;;9.67;90.31;98689.59;5072332;28;20056;-62
2022/04/22 03:16:24;;;;;;;13.77;8.77;;;;;;;9.69;90.42;98694.84;5073477;28;20033;-62
2022/04/22 03:18:49;;;;;;;14.85;7.38;;;;;;;9.65;90.73;98690.63;5092834;28;20024;-62
2022/04/22 03:21:15;;;;;;;15.13;7.75;;;;;;;9.58;90.86;98692.72;5092489;28;20093;-62
2022/04/22 03:23:40;;;;;;;14.35;7.75;;;;;;;9.60;91.67;98692.66;5076795;28;20042;-62
2022/04/22 03:26:07;;;;;;;15.52;8.82;;;;;;;9.59;92.16;98681.16;5072237;28;20032;-62
2022/04/22 03:28:32;;;;;;;15.55;8.50;;;;;;;9.54;91.87;98683.19;5072198;28;20024;-62
2022/04/22 03:30:58;;;;;;;14.23;7.68;;;;;;;9.57;92.35;98693.66;5068344;28;20016;-62
2022/04/22 03:33:23;;;;;;;18.08;8.60;;;;;;;9.58;92.10;98689.22;5070854;28;20031;-62
2022/04/22 03:35:50;;;;;;;17.50;8.48;;;;;;;9.55;92.08;98698.19;5070421;28;20392;-62
2022/04/22 03:38:19;;;;;;;17.55;9.13;;;;;;;9.56;92.65;98691.06;5070527;28;20472;-62
2022/04/22 03:40:46;;;;;;;16.92;9.05;;;;;;;9.57;92.44;98698.97;5070779;28;20024;-62
2022/04/22 03:43:12;;;;;;;15.15;8.30;;;;;;;9.53;92.75;98700.06;5070613;28;20498;-62
2022/04/22 03:45:37;;;;;;;19.98;8.85;;;;;;;9.49;92.90;98698.47;5069435;28;20103;-62
2022/04/22 03:48:05;;;;;;;18.70;9.10;;;;;;;9.50;93.27;98697.56;5071570;28;20020;-62
2022/04/22 03:50:31;;;;;;;14.48;8.23;;;;;;;9.47;93.63;98702.16;5071890;28;20025;-62
2022/04/22 03:52:56;;;;;;;17.55;9.07;;;;;;;9.42;93.90;98694.44;5071901;28;20393;-62
2022/04/22 03:55:22;;;;;;;18.15;8.75;;;;;;;9.42;94.00;98698.88;5053602;28;20029;-62
2022/04/22 04:00:32;;;;;;;;;;;;;;;9.43;94.29;98685.53;5072491;28;20105;-62
2022/04/22 04:02:57;;;;;;;17.85;9.50;;;;;;;9.37;94.17;98696.44;5071700;28;20340;-62
2022/04/22 04:05:23;;;;;;;20.52;9.90;;;;;;;9.37;95.09;98693.78;5071721;28;20043;-62
2022/04/22 04:07:48;;;;;;;19.20;9.65;;;;;;;9.36;94.60;98697.38;5071592;28;20376;-62
2022/04/22 04:16:00;;;;;;;18.40;9.50;;;;;;;9.37;94.92;98699.09;5071603;28;20035;-62
2022/04/22 04:18:31;;;;;;;18.63;8.82;;;;;;;9.38;94.81;98695.50;5090825;28;20103;-62
2022/04/22 04:23:41;;;;;;;19.83;10.82;;;;;;;9.33;95.07;98697.50;5087554;28;20039;-62
2022/04/22 04:26:07;;;;;;;17.42;8.98;;;;;;;9.30;95.48;98700.31;5071531;28;20027;-62
2022/04/22 04:28:34;;;;;;;21.77;10.48;;;;;;;9.28;95.29;98703.06;5071178;28;20476;-62
2022/04/22 04:31:01;;;;;;;19.67;10.05;;;;;;;9.19;95.29;98692.88;5071979;28;20111;-62
2022/04/22 04:33:27;;;;;;;17.80;10.10;;;;;;;9.24;95.67;98719.19;5071450;28;20025;-62
2022/04/22 04:35:53;;;;;;;18.38;10.13;;;;;;;9.27;95.56;98721.69;5071301;28;20111;-62
2022/04/22 04:38:19;;;;;;;17.38;9.43;;;;;;;9.31;95.27;98723.25;5071604;28;20471;-62
2022/04/22 04:40:44;;;;;;;21.27;11.07;;;;;;;9.31;95.03;98716.16;5071319;28;20039;-63
2022/04/22 04:43:10;;;;;;;17.27;10.00;;;;;;;9.25;95.11;98712.94;5071305;28;20024;-63
2022/04/22 04:45:36;;;;;;;18.83;10.13;;;;;;;9.27;95.36;98711.09;5071172;28;20100;-63
2022/04/22 04:48:02;;;;;;;20.58;10.88;;;;;;;9.28;95.30;98704.84;5071084;28;20040;-63
2022/04/22 04:50:28;;;;;;;18.83;10.60;;;;;;;9.40;94.56;98706.91;5071180;28;20400;-63
2022/04/22 04:52:54;;;;;;;21.63;10.32;;;;;;;9.29;94.88;98715.38;5071377;28;20029;-63
2022/04/22 04:55:19;;;;;;;21.85;10.68;;;;;;;9.32;94.60;98711.72;5058470;28;20110;-63
2022/04/22 04:57:45;;;;;;;22.17;10.52;;;;;;;9.35;95.09;98714.22;5054666;28;20661;-63
2022/04/22 05:00:11;;;;;;;19.50;10.50;;;;;;;9.36;95.25;98707.13;5054936;28;20111;-63
2022/04/22 05:02:38;;;;;;;22.58;10.40;;;;;;;9.43;94.49;98698.78;5054768;28;20037;-63
2022/04/22 05:05:05;;;;;;;23.50;11.48;;;;;;;9.46;94.71;98703.06;5055016;28;20036;-63
2022/04/22 05:07:32;;;;;;;20.52;9.98;;;;;;;9.47;94.48;98708.34;5054901;28;20017;-63
2022/04/22 05:09:57;;;;;;;22.27;10.10;;;;;;;9.52;95.02;98716.94;5073968;28;20039;-63
2022/04/22 05:12:23;;;;;;;33.83;11.52;;;;;;;9.51;94.47;98720.50;5074904;28;20028;-63
2022/04/22 05:14:48;;;;;;;26.25;12.93;;;;;;;9.60;94.62;98717.41;5074522;28;20054;-63
2022/04/22 05:17:14;;;;;;;20.08;10.23;;;;;;;9.71;94.23;98723.03;5083881;28;20043;-63
2022/04/22 05:19:40;;;;;;;23.02;11.45;;;;;;;9.89;94.04;98710.63;5073406;28;20033;-63
2022/04/22 05:22:05;;;;;;;22.55;11.15;;;;;;;9.95;92.53;98719.16;5068526;28;20128;-63
2022/04/22 05:24:31;;;;;;;20.60;10.38;;;;;;;10.02;92.02;98717.03;5085757;28;20388;-63
2022/04/22 05:26:57;;;;;;;21.15;11.15;;;;;;;10.06;91.67;98714.16;5095081;28;20077;-63
2022/04/22 05:34:51;;;;;;;20.63;10.25;;;;;;;10.36;90.06;98728.53;5094614;28;20034;-63
2022/04/22 05:37:17;;;;;;;23.85;12.63;;;;;;;10.42;89.31;98720.25;5093650;28;20028;-63
2022/04/22 05:39:43;;;;;;;22.70;10.18;;;;;;;10.60;89.48;98715.75;5092235;28;20047;-63
2022/04/22 05:42:09;;;;;;;24.15;11.65;;;;;;;10.71;87.44;98705.41;5094429;28;20027;-63
2022/04/22 05:44:35;;;;;;;25.42;12.30;;;;;;;10.76;86.69;98694.53;5094741;28;20111;-63
2022/04/22 05:47:00;;;;;;;20.38;10.98;;;;;;;11.02;86.23;98708.09;5094473;28;20020;-63
2022/04/22 05:49:27;;;;;;;20.35;10.32;;;;;;;11.07;86.59;98713.19;5094023;28;20024;-63
2022/04/22 05:51:53;;;;;;;21.50;11.13;;;;;;;11.49;86.42;98716.09;5094108;28;20020;-63
2022/04/22 05:54:19;;;;;;;23.27;12.05;;;;;;;12.12;81.17;98712.41;5094740;28;20055;-63
2022/04/22 05:56:44;;;;;;;24.33;10.18;;;;;;;12.81;77.59;98705.44;5094350;28;20020;-63
2022/04/22 05:59:09;;;;;;;23.00;10.55;;;;;;;12.72;75.55;98706.00;5094096;28;20030;-63
2022/04/22 06:01:35;;;;;;;18.25;10.68;;;;;;;12.58;75.24;98713.16;5094416;28;20467;-63
2022/04/22 06:04:00;;;;;;;20.17;9.60;;;;;;;12.49;76.03;98698.56;5094066;28;20028;-63
2022/04/22 06:06:26;;;;;;;21.98;12.52;;;;;;;12.36;76.76;98708.25;5093836;28;20103;-63
2022/04/22 06:11:35;;;;;;;21.90;11.02;;;;;;;12.45;75.78;98702.38;5094222;28;20070;-63
2022/04/22 06:14:00;;;;;;;20.00;10.90;;;;;;;12.37;76.42;98701.97;5093873;28;20027;-63
2022/04/22 06:16:26;;;;;;;21.13;11.05;;;;;;;12.64;76.17;98707.41;5093772;28;20043;-63
2022/04/22 06:18:51;;;;;;;22.02;11.10;;;;;;;12.75;74.31;98711.13;5093805;28;20046;-63
2022/04/22 06:21:16;;;;;;;22.98;10.50;;;;;;;12.70;74.25;98713.22;5093797;28;20131;-63
2022/04/22 06:23:42;;;;;;;19.13;10.57;;;;;;;12.61;75.50;98708.47;5089051;28;20387;-63
2022/04/22 06:26:07;;;;;;;21.08;11.13;;;;;;;12.64;74.37;98707.41;5073584;28;20028;-63
2022/04/22 06:28:33;;;;;;;31.25;12.80;;;;;;;12.81;75.38;98694.78;5073863;28;20104;-63
2022/04/22 06:30:59;;;;;;;19.40;10.52;;;;;;;12.68;73.38;98704.50;5073402;28;20024;-63
2022/04/22 06:33:25;;;;;;;18.65;10.23;;;;;;;12.75;73.96;98695.13;5073302;28;20074;-64
2022/04/22 06:35:51;;;;;;;20.05;10.38;;;;;;;12.76;73.14;98704.88;5072945;28;20379;-63
2022/04/22 06:38:18;;;;;;;20.65;10.38;;;;;;;12.88;74.10;98700.56;5072008;28;20439;-63
2022/04/22 06:46:13;;;;;;;19.45;10.27;;;;;;;13.41;72.33;98699.88;5071339;28;20079;-63
2022/04/22 06:48:38;;;;;;;18.95;9.63;;;;;;;13.63;69.21;98701.03;5071155;28;20103;-63
2022/04/22 06:51:07;;;;;;;22.13;10.85;;;;;;;13.66;68.47;98691.94;5070856;28;20476;-63
2022/04/22 06:53:34;;;;;;;21.27;11.00;;;;;;;13.90;68.55;98699.22;5072361;28;20047;-63
2022/04/22 06:56:01;;;;;;;22.05;11.52;;;;;;;14.07;66.58;98701.59;5072572;28;20077;-63
2022/04/22 06:58:30;;;;;;;20.65;10.80;;;;;;;14.31;66.55;98699.09;5063815;28;20025;-63
2022/04/22 07:00:56;;;;;;;20.95;10.75;;;;;;;14.69;64.71;98694.63;5069263;28;20020;-63
2022/04/22 07:03:22;;;;;;;21.40;10.80;;;;;;;15.18;64.06;98692.84;5052816;28;20029;-63
2022/04/22 07:05:49;;;;;;;19.38;10.02;;;;;;;15.30;62.25;98696.47;5052691;28;20033;-63
2022/04/22 07:08:17;;;;;;;17.20;9.73;;;;;;;15.48;60.41;98690.66;5052668;28;20025;-63
2022/04/22 07:10:47;;;;;;;18.23;9.63;;;;;;;15.56;59.99;98693.63;5052472;28;20109;-63
2022/04/22 07:13:16;;;;;;;18.63;10.18;;;;;;;15.56;59.68;98685.59;5052746;28;20035;-63
2022/04/22 07:15:43;;;;;;;21.70;10.57;;;;;;;15.72;60.13;98685.28;5061687;28;20074;-63
2022/04/22 07:18:10;;;;;;;20.58;11.13;;;;;;;16.16;60.41;98690.00;5089577;28;20031;-63
2022/04/22 07:20:36;;;;;;;17.70;10.93;;;;;;;16.26;57.25;98683.81;5091855;28;20547;-63
2022/04/22 07:23:01;;;;;;;20.85;11.15;;;;;;;16.34;58.05;98683.22;5092638;28;20115;-63
2022/04/22 07:25:28;;;;;;;20.80;10.35;;;;;;;16.66;56.25;98681.59;5057406;28;20032;-63
2022/04/22 07:27:53;;;;;;;19.83;9.95;;;;;;;16.85;56.28;98688.09;5061516;28;20026;-63
2022/04/22 07:30:20;;;;;;;18.38;9.95;;;;;;;16.96;54.11;98681.88;5071915;28;20116;-63
2022/04/22 07:32:48;;;;;;;17.58;9.80;;;;;;;16.90;54.97;98685.91;5056754;28;20086;-63
2022/04/22 07:35:15;;;;;;;19.77;10.68;;;;;;;17.46;55.13;98689.44;5050834;28;20050;-63
2022/04/22 07:37:45;;;;;;;21.70;11.85;;;;;;;17.59;52.32;98679.41;5050656;28;20025;-63
2022/04/22 07:40:12;;;;;;;17.45;9.55;;;;;;;17.66;52.82;98683.28;5053517;28;20067;-63
2022/04/22 07:42:39;;;;;;;19.58;10.48;;;;;;;17.57;52.52;98681.38;5052102;28;20187;-63
2022/04/22 07:47:50;;;;;;;17.85;10.23;;;;;;;18.74;51.67;98681.22;5052205;28;20078;-63
2022/04/22 07:50:18;;;;;;;18.05;9.80;;;;;;;18.82;49.11;98677.84;5051830;28;20477;-63
2022/04/22 07:52:45;;;;;;;17.90;10.38;;;;;;;19.26;49.46;98683.72;5053622;28;20518;-63
2022/04/22 07:55:12;;;;;;;19.73;9.57;;;;;;;19.53;47.75;98669.66;5055003;28;20079;-63
2022/04/22 07:57:40;;;;;;;18.63;10.52;;;;;;;19.83;48.51;98683.06;5052166;28;20041;-63
2022/04/22 08:00:06;;;;;;;17.55;9.73;;;;;;;19.99;45.96;98680.66;5051644;28;20110;-63
2022/04/22 08:02:33;;;;;;;17.27;9.50;;;;;;;19.63;47.91;98671.38;5050250;28;20021;-63
2022/04/22 08:04:58;;;;;;;17.67;9.63;;;;;;;19.85;47.45;98675.66;5049936;28;20025;-63
2022/04/22 08:07:24;;;;;;;16.33;9.50;;;;;;;20.26;47.56;98669.19;5050353;28;20036;-63
2022/04/22 08:09:50;;;;;;;17.38;10.13;;;;;;;19.88;45.85;98672.69;5050144;28;20029;-63
2022/04/22 08:12:19;;;;;;;14.85;9.07;;;;;;;19.81;47.41;98663.44;5050344;28;20211;-63
2022/04/22 08:14:45;;;;;;;18.15;9.35;;;;;;;19.79;46.29;98676.22;5050042;28;20032;-63
2022/04/22 08:17:11;;;;;;;17.58;8.48;;;;;;;19.89;47.98;98677.09;5068856;28;20028;-63
2022/04/22 08:19:36;;;;;;;16.77;9.88;;;;;;;20.44;47.19;98657.50;5091538;28;20043;-63
2022/04/22 08:22:02;;;;;;;16.90;10.05;;;;;;;20.18;46.38;98661.78;5091606;28;20071;-63
2022/04/22 08:24:27;;;;;;;17.45;9.75;;;;;;;20.47;46.96;98659.91;5080787;28;20028;-63
2022/04/22 08:26:54;;;;;;;19.55;10.43;;;;;;;20.82;45.49;98654.69;5071630;28;20028;-63
2022/04/22 08:29:19;;;;;;;19.13;11.13;;;;;;;20.91;45.65;98661.06;5071339;28;20026;-63
2022/04/22 08:31:45;;;;;;;16.25;9.10;;;;;;;21.17;45.52;98662.16;5074681;28;20532;-63
2022/04/22 08:34:11;;;;;;;17.83;10.57;;;;;;;21.32;44.06;98654.38;5074172;28;20468;-63
2022/04/22 08:36:36;;;;;;;16.55;9.68;;;;;;;21.53;43.64;98646.88;5075455;28;20101;-63
2022/04/22 08:39:04;;;;;;;16.10;9.10;;;;;;;21.92;44.58;98659.19;5075265;28;20024;-63
2022/04/22 08:41:34;;;;;;;18.73;10.55;;;;;;;21.28;42.74;98651.16;5075418;28;20039;-63
2022/04/22 08:44:00;;;;;;;18.60;9.75;;;;;;;20.97;44.76;98648.84;5075813;28;20024;-63
2022/04/22 08:51:58;;;;;;;14.80;9.65;;;;;;;21.79;44.99;98642.47;5075512;28;20039;-63
2022/04/22 08:54:26;;;;;;;17.70;9.50;;;;;;;22.29;44.64;98635.47;5075363;28;20032;-63
2022/04/22 08:56:53;;;;;;;19.02;10.82;;;;;;;22.55;42.29;98639.13;5074824;28;20020;-63
2022/04/22 08:59:18;;;;;;;17.08;9.75;;;;;;;22.86;42.41;98636.78;5058931;28;20036;-63
2022/04/22 09:01:44;;;;;;;16.77;9.55;;;;;;;22.94;41.87;98632.25;5054752;28;20025;-64
2022/04/22 09:04:10;;;;;;;16.45;9.60;;;;;;;22.80;40.35;98637.44;5055259;28;20053;-63
2022/04/22 09:06:36;;;;;;;16.42;9.60;;;;;;;22.76;41.41;98636.91;5071654;28;20020;-63
2022/04/22 09:09:04;;;;;;;15.32;9.63;;;;;;;22.46;40.71;98634.63;5074937;28;20032;-63
2022/04/22 09:11:30;;;;;;;18.23;9.27;;;;;;;22.43;39.63;98626.81;5075010;28;20031;-63
2022/04/22 09:13:59;;;;;;;15.60;9.25;;;;;;;22.40;42.74;98627.13;5074711;28;20084;-63
2022/04/22 09:16:25;;;;;;;17.00;10.00;;;;;;;22.37;40.74;98626.59;5074531;28;20025;-63
2022/04/22 09:19:01;;;;;;;16.65;8.63;;;;;;;22.07;40.25;98620.56;5074776;28;20025;-63
2022/04/22 09:21:29;;;;;;;18.35;9.07;;;;;;;22.05;41.21;98610.91;5082609;28;20040;-63
2022/04/22 09:23:54;;;;;;;12.95;7.95;;;;;;;22.22;43.00;98617.31;5094847;28;20030;-63
2022/04/22 09:26:24;;;;;;;15.10;8.48;;;;;;;22.40;42.52;98621.69;5090676;28;20421;-63
2022/04/22 09:29:00;;;;;;;15.00;8.95;;;;;;;22.35;40.09;98610.50;5093430;28;20475;-63
2022/04/22 09:31:27;;;;;;;14.40;8.90;;;;;;;22.22;42.33;98612.75;5075255;28;20028;-61
2022/04/22 09:33:53;;;;;;;18.15;9.48;;;;;;;21.62;43.81;98608.06;5085389;28;20440;-62
2022/04/22 09:45:04;;;;;;;17.98;10.18;;;;;;;22.84;42.34;98604.41;5074273;28;20040;-62
2022/04/22 09:47:32;;;;;;;15.07;8.70;;;;;;;23.09;41.24;98589.97;5074145;28;20373;-62
2022/04/22 09:49:59;;;;;;;15.25;8.80;;;;;;;22.74;40.21;98592.81;5074205;28;20036;-62
2022/04/22 09:52:28;;;;;;;15.98;9.40;;;;;;;22.49;41.85;98590.94;5079175;28;20027;-62
2022/04/22 09:54:58;;;;;;;17.85;9.68;;;;;;;22.92;40.89;98581.91;5092658;28;20016;-62
2022/04/22 09:57:23;;;;;;;15.32;8.27;;;;;;;23.35;40.24;98588.06;5092207;28;20058;-62
2022/04/22 09:59:50;;;;;;;14.38;8.48;;;;;;;23.12;38.80;98580.63;5094349;28;20147;-62
2022/04/22 10:02:21;;;;;;;14.98;8.38;;;;;;;23.08;39.68;98574.69;5094376;28;20023;-62
2022/04/22 10:04:49;;;;;;;15.98;8.80;;;;;;;22.57;39.62;98572.03;5094318;28;20016;-62
2022/04/22 10:07:16;;;;;;;14.82;9.10;;;;;;;22.79;40.59;98563.38;5094224;28;20020;-62
2022/04/22 10:09:44;;;;;;;13.30;8.48;;;;;;;22.46;41.05;98561.44;5094254;28;20039;-62
2022/04/22 10:12:15;;;;;;;15.98;9.75;;;;;;;22.69;40.76;98568.06;5093812;28;20022;-62
2022/04/22 10:14:43;;;;;;;13.88;8.82;;;;;;;22.66;41.12;98562.97;5093868;28;20088;-62
2022/04/22 10:17:10;;;;;;;13.20;7.72;;;;;;;23.23;39.36;98562.19;5092730;28;20031;-62
2022/04/22 10:19:36;;;;;;;14.85;8.63;;;;;;;23.35;40.35;98549.22;5092816;28;20027;-62
2022/04/22 10:22:03;;;;;;;14.02;7.93;;;;;;;23.53;38.91;98551.78;5092453;28;20058;-62
2022/04/22 10:24:31;;;;;;;13.23;7.82;;;;;;;23.83;39.79;98551.16;5081146;28;20036;-62
2022/04/22 10:26:59;;;;;;;12.00;7.55;;;;;;;23.81;38.78;98550.47;5071873;28;20020;-62
2022/04/22 10:29:25;;;;;;;12.50;7.43;;;;;;;24.13;37.92;98561.41;5072156;28;20028;-62
2022/04/22 10:31:51;;;;;;;12.20;7.68;;;;;;;24.32;36.68;98544.72;5072676;28;20025;-62
2022/04/22 10:34:17;;;;;;;12.32;7.07;;;;;;;23.86;38.66;98545.38;5072993;28;20024;-62
2022/04/22 10:36:55;;;;;;;11.38;7.20;;;;;;;24.28;39.26;98537.94;5072920;28;20029;-62
2022/04/22 10:39:34;;;;;;;11.32;7.13;;;;;;;24.55;36.54;98541.13;5054945;28;20154;-62
2022/04/22 10:41:59;;;;;;;13.18;7.75;;;;;;;24.45;36.88;98534.16;5053333;28;20048;-63
2022/04/22 10:47:15;;;;;;;12.18;7.22;;;;;;;25.18;36.19;98538.38;5051738;28;20039;-63
2022/04/22 10:49:45;;;;;;;14.88;7.40;;;;;;;25.15;36.34;98530.56;5052382;28;20029;-63
2022/04/22 10:52:14;;;;;;;15.30;7.22;;;;;;;25.22;37.47;98533.44;5056602;28;20532;-64
2022/04/22 10:54:52;;;;;;;14.13;7.88;;;;;;;25.30;38.91;98515.19;5065301;28;20418;-63
2022/04/22 10:57:29;;;;;;;10.65;6.88;;;;;;;25.11;37.56;98521.06;5072796;28;20028;-63
2022/04/22 11:00:03;;;;;;;14.23;7.70;;;;;;;24.13;37.35;98526.06;5069818;28;20020;-63
2022/04/22 11:02:30;;;;;;;14.05;7.68;;;;;;;24.15;38.82;98521.31;5052583;28;20141;-63
2022/04/22 11:05:20;;;;;;;15.80;8.90;;;;;;;24.80;37.61;98517.44;5070548;28;20075;-63
2022/04/22 11:07:52;;;;;;;11.35;7.13;;;;;;;25.51;37.68;98518.16;5072724;28;20024;-64
2022/04/22 11:10:19;;;;;;;13.65;7.72;;;;;;;25.59;35.30;98515.38;5072572;28;20068;-64
2022/04/22 11:12:58;;;;;;;11.88;7.47;;;;;;;25.74;33.75;98513.56;5072472;28;20124;-64
2022/04/22 11:15:42;;;;;;;13.43;7.47;;;;;;;25.24;35.62;98507.72;5072629;28;20052;-64
2022/04/22 11:18:12;;;;;;;13.02;7.88;;;;;;;24.94;36.30;98513.16;5089559;28;20036;-63
2022/04/22 11:21:05;;;;;;;13.07;7.32;;;;;;;24.42;38.07;98501.91;5092518;28;20102;-63
2022/04/22 11:23:35;;;;;;;13.25;7.93;;;;;;;24.95;38.94;98503.97;5062339;28;20487;-63
2022/04/22 11:26:01;;;;;;;11.25;6.90;;;;;;;25.72;37.41;98487.50;5072252;28;20021;-64
2022/04/22 11:28:32;;;;;;;11.27;6.53;;;;;;;25.98;35.95;98499.72;5072285;28;20103;-63
2022/04/22 11:31:02;;;;;;;12.00;6.90;;;;;;;26.47;35.47;98493.84;5071064;28;20040;-64
2022/04/22 11:33:34;;;;;;;9.30;5.35;;;;;;;26.60;34.04;98494.03;5070708;28;20571;-63
2022/04/22 11:36:03;;;;;;;14.67;7.23;;;;;;;25.95;34.92;98500.09;5061523;28;20051;-64
2022/04/22 11:38:31;;;;;;;10.85;6.15;;;;;;;25.35;35.73;98499.19;5065834;28;20312;-64
2022/04/22 11:40:56;;;;;;;9.63;6.13;;;;;;;25.70;35.94;98493.16;5071885;28;20086;-64
2022/04/22 11:43:21;;;;;;;11.38;5.63;;;;;;;26.14;35.88;98503.38;5071770;28;20036;-64
2022/04/22 11:45:49;;;;;;;11.98;6.03;;;;;;;25.73;35.02;98498.22;5071698;28;20030;-64
2022/04/22 11:48:19;;;;;;;9.88;6.22;;;;;;;25.69;35.95;98487.88;5067499;28;20036;-63
2022/04/22 11:50:46;;;;;;;12.63;6.53;;;;;;;25.76;36.00;98480.69;5051803;28;20026;-61
2022/04/22 11:53:16;;;;;;;11.50;6.47;;;;;;;26.34;35.74;98497.22;5051949;28;20096;-64
2022/04/22 11:55:43;;;;;;;11.27;6.47;;;;;;;25.63;34.32;98488.63;5071869;28;20024;-64
2022/04/22 11:58:13;;;;;;;12.43;6.97;;;;;;;25.59;35.29;98490.00;5071900;28;20081;-65
2022/04/22 12:06:14;;;;;;;34.20;15.85;;;;;;;26.05;35.79;98474.50;5071732;28;20555;-64
2022/04/22 12:08:53;;;;;;;50.97;22.63;;;;;;;26.29;35.02;98477.00;5071433;28;20403;-64
2022/04/22 12:11:19;;;;;;;14.88;7.97;;;;;;;26.47;34.54;98486.53;5071770;28;20028;-64
2022/04/22 12:13:46;;;;;;;27.45;11.40;;;;;;;26.14;34.40;98479.69;5071816;28;20531;-64
2022/04/22 12:16:11;;;;;;;25.95;12.70;;;;;;;26.11;34.94;98479.22;5072431;28;20384;-64
2022/04/22 12:18:37;;;;;;;39.85;16.77;;;;;;;26.05;35.33;98472.63;5091882;28;20016;-64
2022/04/22 12:21:06;;;;;;;43.65;17.67;;;;;;;26.10;34.74;98469.34;5091483;28;20157;-64
2022/04/22 12:23:37;;;;;;;47.08;19.05;;;;;;;26.56;34.55;98473.63;5088403;28;20029;-65
2022/04/22 12:26:03;;;;;;;55.80;22.13;;;;;;;26.99;33.74;98472.78;5071617;28;20020;-64
2022/04/22 12:28:28;;;;;;;26.70;11.60;;;;;;;26.54;33.71;98476.53;5071118;28;20515;-64
2022/04/22 12:30:54;;;;;;;33.70;15.25;;;;;;;27.12;34.66;98462.00;5071274;28;20020;-64